Time;durP1;ratioP1;P1;durP2;ratioP2;P2;SDS_P1;SDS_P2;PMS_P1;PMS_P2;Temp;Humidity;BMP_temperature;BMP_pressure;BME280_temperature;BME280_humidity;BME280_pressure;Samples;Min_cycle;Max_cycle;Signal;HPM_P1;HPM_P2
2022/05/26 00:01:54;;;;;;;0.95;0.85;;;;;;;14.11;54.66;98735.44;4191999;28;20392;-72
2022/05/26 00:03:55;;;;;;;1.75;0.95;;;;;;;14.09;54.36;98721.94;4202090;28;20040;-72
2022/05/26 00:05:55;;;;;;;1.40;0.88;;;;;;;14.08;54.74;98728.69;4201612;27;20439;-72
2022/05/26 00:07:55;;;;;;;1.90;1.00;;;;;;;14.09;55.07;98735.06;4187259;28;20044;-72
2022/05/26 00:09:55;;;;;;;1.50;0.93;;;;;;;14.09;54.54;98738.63;4186821;28;20477;-72
2022/05/26 00:11:56;;;;;;;1.90;1.08;;;;;;;14.08;54.73;98731.47;4186807;28;20036;-71
2022/05/26 00:13:58;;;;;;;1.80;1.13;;;;;;;14.04;55.16;98725.91;4187226;28;20043;-72
2022/05/26 00:15:59;;;;;;;;;;;;;;;14.05;55.29;98733.03;4187559;28;20618;-72
2022/05/26 00:17:59;;;;;;;1.40;1.07;;;;;;;14.04;55.69;98725.09;4186858;28;19955;-71
2022/05/26 00:19:59;;;;;;;2.15;1.23;;;;;;;14.04;55.76;98725.91;4186290;28;20370;-71
2022/05/26 00:21:59;;;;;;;2.53;1.00;;;;;;;14.03;55.76;98723.50;4199478;28;20448;-72
2022/05/26 00:24:00;;;;;;;3.10;1.10;;;;;;;14.00;55.76;98718.75;4202391;27;20036;-71
2022/05/26 00:26:01;;;;;;;1.20;0.93;;;;;;;13.99;55.92;98717.97;4195018;28;20076;-72
2022/05/26 00:28:02;;;;;;;1.20;0.93;;;;;;;14.03;55.84;98720.72;4191409;27;20036;-72
2022/05/26 00:30:03;;;;;;;1.25;0.82;;;;;;;14.02;55.94;98721.94;4187437;28;20033;-72
2022/05/26 00:32:03;;;;;;;0.80;0.80;;;;;;;14.00;56.53;98716.75;4197562;27;20121;-72
2022/05/26 00:34:04;;;;;;;1.45;0.90;;;;;;;13.98;56.04;98719.16;4202467;27;20046;-72
2022/05/26 00:36:06;;;;;;;2.30;1.02;;;;;;;13.99;56.97;98726.31;4201700;28;20120;-72
2022/05/26 00:38:09;;;;;;;2.55;1.10;;;;;;;13.96;56.96;98720.72;4189427;28;20376;-72
2022/05/26 00:40:12;;;;;;;0.85;0.85;;;;;;;13.93;56.90;98732.63;4185906;28;20029;-72
2022/05/26 00:42:12;;;;;;;2.72;1.45;;;;;;;13.88;56.63;98727.44;4186710;28;20472;-72
2022/05/26 00:44:13;;;;;;;1.27;1.00;;;;;;;13.83;57.18;98717.53;4186570;28;20060;-72
2022/05/26 00:46:18;;;;;;;2.13;1.00;;;;;;;13.92;57.08;98736.63;4186632;28;20036;-72
2022/05/26 00:48:23;;;;;;;2.35;1.02;;;;;;;13.90;57.32;98731.44;4186529;28;20032;-72
2022/05/26 00:50:28;;;;;;;1.88;1.30;;;;;;;13.92;57.11;98729.06;4186785;28;20103;-72
2022/05/26 00:52:31;;;;;;;2.80;1.60;;;;;;;13.93;57.17;98732.63;4185451;28;20450;-71
2022/05/26 00:54:32;;;;;;;4.22;0.95;;;;;;;13.89;57.28;98729.84;4186417;28;20044;-72
2022/05/26 00:56:43;;;;;;;1.10;1.00;;;;;;;13.87;57.41;98723.88;4186297;28;20052;-72
2022/05/26 00:58:48;;;;;;;3.45;1.00;;;;;;;13.86;57.71;98730.63;4199583;27;20048;-72
2022/05/26 01:00:49;;;;;;;2.65;1.20;;;;;;;13.86;57.22;98718.72;4200982;27;20123;-71
2022/05/26 01:03:10;;;;;;;2.53;0.90;;;;;;;13.93;57.47;98724.28;4201786;27;20273;-72
2022/05/26 01:05:15;;;;;;;2.13;1.33;;;;;;;13.90;56.99;98719.50;4193671;27;20483;-71
2022/05/26 01:07:28;;;;;;;3.15;1.00;;;;;;;13.91;57.22;98727.47;4186299;28;20114;-71
2022/05/26 01:09:28;;;;;;;2.47;1.05;;;;;;;13.92;57.57;98722.72;4186203;28;20123;-71
2022/05/26 01:11:31;;;;;;;1.17;1.00;;;;;;;13.92;57.13;98729.06;4185952;28;20076;-71
2022/05/26 01:13:39;;;;;;;2.03;1.10;;;;;;;13.88;57.60;98717.13;4185662;28;20113;-72
2022/05/26 01:15:40;;;;;;;2.22;1.05;;;;;;;13.91;57.18;98726.69;4192102;28;20071;-71
2022/05/26 01:17:50;;;;;;;2.08;0.93;;;;;;;13.97;57.28;98725.09;4198208;27;20045;-71
2022/05/26 01:20:07;;;;;;;2.17;1.08;;;;;;;13.94;57.56;98729.47;4185834;28;20072;-71
2022/05/26 01:22:29;;;;;;;3.17;1.00;;;;;;;13.93;57.55;98736.22;4185459;28;20044;-72
2022/05/26 01:24:48;;;;;;;1.55;1.00;;;;;;;13.91;57.52;98735.81;4186216;28;20139;-71
2022/05/26 01:27:14;;;;;;;4.82;1.25;;;;;;;13.91;57.56;98732.25;4199929;27;20540;-71
2022/05/26 01:29:33;;;;;;;1.60;0.98;;;;;;;13.94;57.74;98745.34;4199366;27;20294;-72
2022/05/26 01:31:56;;;;;;;1.88;1.20;;;;;;;13.90;57.77;98744.53;4185916;28;20044;-71
2022/05/26 01:34:02;;;;;;;2.72;1.10;;;;;;;13.89;58.05;98746.53;4185960;28;20064;-71
2022/05/26 01:36:17;;;;;;;1.67;0.93;;;;;;;13.87;58.17;98737.78;4185683;28;20037;-72
2022/05/26 01:38:22;;;;;;;2.97;1.00;;;;;;;13.90;58.12;98750.94;4185644;28;20078;-71
2022/05/26 01:40:40;;;;;;;2.85;1.00;;;;;;;13.86;58.31;98746.53;4201217;27;20251;-71
2022/05/26 01:42:53;;;;;;;2.88;1.02;;;;;;;13.87;58.21;98743.34;4185291;28;20077;-71
2022/05/26 01:44:53;;;;;;;3.17;1.10;;;;;;;13.83;57.91;98748.13;4192474;27;20044;-71
2022/05/26 01:46:58;;;;;;;2.00;1.50;;;;;;;13.82;58.58;98742.94;4193409;27;20052;-71
2022/05/26 01:49:12;;;;;;;2.83;1.00;;;;;;;13.84;58.79;98737.78;4195027;27;20059;-72
2022/05/26 01:52:09;;;;;;;2.40;1.20;;;;;;;13.80;58.64;98734.97;4188672;28;20051;-71
2022/05/26 01:54:22;;;;;;;1.23;1.08;;;;;;;13.76;58.55;98734.97;4169230;28;20045;-72
2022/05/26 01:56:44;;;;;;;1.10;0.82;;;;;;;13.72;58.94;98731.38;4182301;28;20169;-72
2022/05/26 01:58:59;;;;;;;2.53;1.20;;;;;;;13.69;58.73;98728.59;4185037;28;20500;-71
2022/05/26 02:01:03;;;;;;;1.25;0.93;;;;;;;13.67;59.03;98731.78;4186044;28;20108;-72
2022/05/26 02:03:12;;;;;;;1.45;0.80;;;;;;;13.64;58.85;98732.56;4189601;28;20044;-71
2022/05/26 02:05:16;;;;;;;1.17;0.90;;;;;;;13.65;58.93;98731.38;4207319;27;20100;-71
2022/05/26 02:07:23;;;;;;;3.58;1.42;;;;;;;13.65;59.39;98730.56;4195607;28;20044;-71
2022/05/26 02:09:29;;;;;;;1.00;0.90;;;;;;;13.63;59.34;98732.94;4190415;28;20477;-71
2022/05/26 02:11:30;;;;;;;1.73;1.00;;;;;;;13.64;59.36;98734.53;4193504;28;20055;-71
2022/05/26 02:13:38;;;;;;;3.17;1.00;;;;;;;13.64;59.43;98737.31;4191162;28;20029;-71
2022/05/26 02:15:47;;;;;;;2.35;1.10;;;;;;;13.62;59.02;98723.81;4191170;28;20051;-71
2022/05/26 02:17:56;;;;;;;1.98;0.85;;;;;;;13.61;59.34;98729.78;4191577;28;20032;-71
2022/05/26 02:19:59;;;;;;;2.03;1.02;;;;;;;13.64;59.42;98727.00;4201325;28;20592;-71
2022/05/26 02:22:17;;;;;;;1.42;0.90;;;;;;;13.62;59.55;98729.38;4195526;27;20091;-71
2022/05/26 02:24:33;;;;;;;5.85;1.40;;;;;;;13.59;59.32;98727.38;4190063;28;20041;-71
2022/05/26 02:26:36;;;;;;;1.70;1.00;;;;;;;13.56;59.85;98722.59;4190938;28;20123;-71
2022/05/26 02:30:58;;;;;;;1.88;1.10;;;;;;;13.53;59.98;98723.38;4206191;27;20050;-71
2022/05/26 02:33:00;;;;;;;2.47;1.02;;;;;;;13.51;60.11;98711.06;4200505;27;20392;-71
2022/05/26 02:35:06;;;;;;;2.28;0.95;;;;;;;13.52;60.17;98715.44;4191478;28;20472;-71
2022/05/26 02:37:09;;;;;;;3.90;1.08;;;;;;;13.51;60.11;98719.41;4191169;28;20037;-71
2022/05/26 02:39:09;;;;;;;1.90;1.02;;;;;;;13.45;59.95;98716.22;4189570;28;20044;-71
2022/05/26 02:41:11;;;;;;;1.73;1.10;;;;;;;13.43;60.54;98724.16;4203600;27;20044;-71
2022/05/26 02:43:27;;;;;;;1.83;0.90;;;;;;;13.42;60.54;98725.34;4193513;28;20826;-71
2022/05/26 02:45:55;;;;;;;2.75;1.20;;;;;;;13.39;60.22;98720.53;4190830;28;20281;-71
2022/05/26 02:48:03;;;;;;;2.10;1.20;;;;;;;13.35;60.21;98723.31;4202879;28;20040;-71
2022/05/26 02:50:19;;;;;;;1.30;1.00;;;;;;;13.33;60.34;98722.94;4198436;27;20051;-72
2022/05/26 02:52:37;;;;;;;2.58;1.20;;;;;;;13.33;60.58;98727.69;4205530;27;20058;-72
2022/05/26 02:55:07;;;;;;;0.77;0.77;;;;;;;13.32;60.38;98715.78;4206559;27;20051;-71
2022/05/26 02:57:29;;;;;;;1.35;1.00;;;;;;;13.27;60.69;98715.34;4191930;28;20055;-71
2022/05/26 02:59:47;;;;;;;2.20;1.17;;;;;;;13.25;60.64;98724.06;4190126;28;20051;-71
2022/05/26 03:02:21;;;;;;;1.10;0.90;;;;;;;13.23;61.07;98726.44;4190695;28;20687;-71
2022/05/26 03:04:37;;;;;;;1.55;0.98;;;;;;;13.19;61.14;98726.41;4190897;28;20439;-71
2022/05/26 03:06:47;;;;;;;2.85;1.00;;;;;;;13.17;61.24;98722.41;4190902;28;20211;-71
2022/05/26 03:08:49;;;;;;;0.82;0.82;;;;;;;13.16;61.00;98721.63;4190122;28;20054;-71
2022/05/26 03:10:52;;;;;;;1.77;1.05;;;;;;;13.12;61.54;98731.91;4190285;28;20375;-71
2022/05/26 03:12:54;;;;;;;1.30;1.05;;;;;;;13.06;62.10;98722.34;4190570;27;20037;-71
2022/05/26 03:14:55;;;;;;;4.65;2.47;;;;;;;13.04;61.70;98740.59;4188663;28;20133;-71
2022/05/26 03:16:56;;;;;;;1.80;1.00;;;;;;;13.02;61.62;98740.97;4188199;28;20044;-71
2022/05/26 03:18:58;;;;;;;1.67;1.02;;;;;;;12.94;62.26;98726.25;4187587;28;20083;-72
2022/05/26 03:21:02;;;;;;;2.95;1.00;;;;;;;12.94;62.28;98736.56;4188197;28;20044;-71
2022/05/26 03:23:03;;;;;;;1.02;0.85;;;;;;;12.90;62.21;98736.53;4194931;28;20051;-71
2022/05/26 03:25:04;;;;;;;1.73;0.98;;;;;;;12.87;62.94;98739.28;4203589;27;20380;-71
2022/05/26 03:27:05;;;;;;;2.10;1.10;;;;;;;12.82;63.27;98740.44;4201898;27;20048;-71
2022/05/26 03:29:06;;;;;;;2.60;1.10;;;;;;;12.86;62.83;98752.38;4186851;28;20051;-71
2022/05/26 03:31:08;;;;;;;2.22;1.10;;;;;;;12.85;62.91;98742.47;4188032;28;20068;-71
2022/05/26 03:33:08;;;;;;;3.05;1.00;;;;;;;12.84;63.46;98746.44;4187791;28;20393;-71
2022/05/26 03:42:09;;;;;;;5.63;0.98;;;;;;;12.69;64.69;98753.06;4187346;28;20363;-71
2022/05/26 03:44:09;;;;;;;6.57;1.92;;;;;;;12.70;64.28;98760.22;4187957;28;20028;-71
2022/05/26 03:46:11;;;;;;;5.07;3.10;;;;;;;12.70;64.36;98759.41;4187330;28;20129;-72
2022/05/26 03:48:11;;;;;;;6.57;2.97;;;;;;;12.69;64.31;98755.84;4202482;27;20038;-71
2022/05/26 03:50:12;;;;;;;4.78;2.38;;;;;;;12.69;64.16;98761.38;4202045;27;20111;-71
2022/05/26 03:52:12;;;;;;;6.72;1.65;;;;;;;12.71;63.94;98761.78;4203538;27;20347;-71
2022/05/26 03:54:12;;;;;;;1.83;1.10;;;;;;;12.71;64.06;98764.56;4190842;28;20442;-71
2022/05/26 03:56:13;;;;;;;1.58;1.05;;;;;;;12.75;64.11;98761.84;4187482;28;20460;-72
2022/05/26 03:58:13;;;;;;;1.88;0.85;;;;;;;12.76;64.18;98768.97;4187768;28;20028;-71
2022/05/26 04:00:16;;;;;;;2.63;1.05;;;;;;;12.74;63.99;98766.56;4186649;28;20364;-72
2022/05/26 04:02:17;;;;;;;3.80;1.20;;;;;;;12.80;63.93;98770.59;4187493;28;20397;-71
2022/05/26 04:04:17;;;;;;;1.73;0.90;;;;;;;12.87;63.74;98767.88;4193210;27;20081;-71
2022/05/26 04:06:17;;;;;;;2.25;1.08;;;;;;;12.92;63.52;98767.50;4192218;27;20035;-71
2022/05/26 04:08:18;;;;;;;2.17;0.93;;;;;;;12.96;63.60;98781.41;4201907;27;20028;-71
2022/05/26 04:10:19;;;;;;;1.23;0.82;;;;;;;12.99;63.52;98768.72;4200634;27;20040;-71
2022/05/26 04:12:20;;;;;;;2.92;0.90;;;;;;;13.03;63.27;98786.22;4187498;28;20115;-71
2022/05/26 04:14:21;;;;;;;1.65;1.00;;;;;;;13.05;63.59;98792.19;4187103;28;20072;-71
2022/05/26 04:16:22;;;;;;;2.25;0.80;;;;;;;13.05;63.63;98789.41;4187175;28;20059;-72
2022/05/26 04:18:22;;;;;;;2.45;0.80;;;;;;;13.03;63.33;98789.00;4186112;28;20765;-71
2022/05/26 04:20:23;;;;;;;2.38;1.25;;;;;;;13.06;63.49;98789.00;4197331;27;20060;-71
2022/05/26 04:22:23;;;;;;;1.95;1.10;;;;;;;13.08;63.41;98788.66;4201083;27;20105;-71
2022/05/26 04:24:24;;;;;;;2.10;1.08;;;;;;;13.07;63.65;98789.81;4201021;27;20154;-72
2022/05/26 04:26:24;;;;;;;3.03;1.00;;;;;;;13.03;63.66;98794.56;4187340;28;20041;-71
2022/05/26 04:28:24;;;;;;;1.17;0.93;;;;;;;13.01;64.10;98794.16;4200817;27;20085;-72
2022/05/26 04:30:25;;;;;;;2.03;1.10;;;;;;;13.00;64.15;98796.13;4193136;28;20266;-72
2022/05/26 04:32:26;;;;;;;3.05;0.88;;;;;;;13.04;64.08;98794.16;4187097;28;20132;-71
2022/05/26 04:34:26;;;;;;;2.33;0.80;;;;;;;13.08;64.08;98796.97;4186816;28;20470;-71
2022/05/26 04:36:26;;;;;;;1.50;1.08;;;;;;;13.09;64.16;98798.56;4186798;28;20468;-71
2022/05/26 04:38:27;;;;;;;1.02;0.88;;;;;;;13.10;65.26;98800.94;4185863;28;20151;-71
2022/05/26 04:40:27;;;;;;;2.30;1.50;;;;;;;13.10;64.98;98806.50;4196959;28;20122;-71
2022/05/26 04:42:29;;;;;;;0.90;0.90;;;;;;;13.12;65.25;98803.34;4201299;27;20044;-71
2022/05/26 04:44:35;;;;;;;1.55;1.23;;;;;;;13.16;66.17;98804.97;4187753;28;20041;-71
2022/05/26 04:46:36;;;;;;;2.63;1.00;;;;;;;13.16;66.20;98816.09;4186670;28;20122;-72
2022/05/26 04:48:37;;;;;;;4.95;1.35;;;;;;;13.17;65.81;98809.34;4185944;28;20078;-71
2022/05/26 04:50:37;;;;;;;3.22;0.88;;;;;;;13.17;65.79;98819.66;4186006;28;20135;-71
2022/05/26 04:52:38;;;;;;;1.33;1.00;;;;;;;13.16;67.07;98810.53;4186512;28;20040;-71
2022/05/26 04:54:39;;;;;;;4.35;0.90;;;;;;;13.20;65.95;98813.34;4186820;28;20400;-71
2022/05/26 04:56:39;;;;;;;2.10;1.00;;;;;;;13.27;65.89;98820.94;4192735;27;20068;-71
2022/05/26 04:58:39;;;;;;;1.48;0.90;;;;;;;13.32;65.85;98817.78;4188744;28;20059;-71
2022/05/26 05:00:40;;;;;;;2.80;0.93;;;;;;;13.36;66.26;98829.72;4201567;27;20043;-71
2022/05/26 05:02:41;;;;;;;1.17;0.98;;;;;;;13.39;66.12;98826.16;4201292;27;20044;-71
2022/05/26 05:04:44;;;;;;;2.35;1.00;;;;;;;13.45;66.35;98821.81;4190684;28;20131;-71
2022/05/26 05:06:44;;;;;;;1.73;0.93;;;;;;;13.57;65.90;98829.84;4186138;28;20354;-71
2022/05/26 05:08:45;;;;;;;1.20;1.08;;;;;;;13.66;66.61;98829.50;4191761;27;20046;-71
2022/05/26 05:10:45;;;;;;;2.22;1.13;;;;;;;13.72;65.85;98836.25;4186500;28;20059;-71
2022/05/26 05:12:48;;;;;;;2.97;1.10;;;;;;;13.80;66.67;98837.09;4186371;28;20504;-71
2022/05/26 05:14:50;;;;;;;5.45;1.35;;;;;;;13.84;65.34;98841.50;4186037;28;20438;-71
2022/05/26 05:16:50;;;;;;;1.30;1.08;;;;;;;13.88;65.11;98845.06;4186019;28;20099;-71
2022/05/26 05:18:51;;;;;;;3.78;1.02;;;;;;;13.87;65.05;98837.13;4194403;27;20047;-71
2022/05/26 05:20:53;;;;;;;1.98;1.10;;;;;;;13.92;63.82;98845.88;4185565;28;20045;-71
2022/05/26 05:22:59;;;;;;;;;;;;;;;14.02;64.28;98849.91;4186954;28;20051;-71
2022/05/26 05:25:22;;;;;;;3.05;1.10;;;;;;;14.06;63.99;98848.69;4185873;28;19971;-71
2022/05/26 05:27:35;;;;;;;4.55;1.00;;;;;;;14.09;63.86;98852.72;4186797;28;20116;-71
2022/05/26 05:29:37;;;;;;;;;;;;;;;14.11;64.58;98852.31;4182713;28;20158;-71
2022/05/26 05:31:45;;;;;;;2.70;1.00;;;;;;;14.13;64.44;98859.06;4187443;28;20367;-71
2022/05/26 05:33:56;;;;;;;1.98;1.23;;;;;;;14.16;63.92;98865.84;4193505;27;20044;-71
2022/05/26 05:36:14;;;;;;;2.15;0.90;;;;;;;14.19;64.13;98862.28;4193825;28;20036;-71
2022/05/26 05:38:16;;;;;;;2.60;1.10;;;;;;;14.28;63.55;98866.28;4193036;28;20051;-71
2022/05/26 05:40:16;;;;;;;4.50;1.40;;;;;;;14.24;63.66;98865.47;4186828;28;20396;-71
2022/05/26 05:42:17;;;;;;;1.50;0.98;;;;;;;14.26;63.43;98874.22;4200818;27;20027;-71
2022/05/26 05:44:17;;;;;;;2.40;1.20;;;;;;;14.26;63.79;98870.66;4190969;28;20036;-71
2022/05/26 05:46:19;;;;;;;1.05;0.90;;;;;;;14.31;63.68;98870.25;4197470;27;20442;-71
2022/05/26 05:48:21;;;;;;;1.02;0.80;;;;;;;14.33;63.71;98876.25;4191397;28;20207;-71
2022/05/26 05:50:21;;;;;;;1.80;1.10;;;;;;;14.37;64.56;98871.47;4185327;28;20056;-71
2022/05/26 05:52:23;;;;;;;2.95;1.00;;;;;;;14.41;65.23;98882.63;4185609;28;20436;-71
2022/05/26 05:54:23;;;;;;;1.97;1.30;;;;;;;14.44;64.32;98888.19;4182033;28;20041;-72
2022/05/26 05:56:24;;;;;;;2.88;1.02;;;;;;;14.46;63.77;98891.41;4187127;28;20269;-71
2022/05/26 05:58:25;;;;;;;1.38;1.00;;;;;;;14.49;63.88;98890.63;4182364;28;20084;-71
2022/05/26 06:00:25;;;;;;;2.78;1.38;;;;;;;14.52;64.27;98900.97;4192174;27;20036;-72
2022/05/26 06:02:26;;;;;;;2.65;1.30;;;;;;;14.51;64.73;98907.72;4185471;28;20390;-71
2022/05/26 06:04:26;;;;;;;2.33;1.10;;;;;;;14.47;64.61;98908.91;4185266;28;20087;-71
2022/05/26 06:06:27;;;;;;;1.88;1.00;;;;;;;14.47;64.50;98904.13;4185945;28;20045;-72
2022/05/26 06:08:27;;;;;;;1.50;1.10;;;;;;;14.48;65.05;98905.75;4184946;28;20399;-71
2022/05/26 06:10:30;;;;;;;3.03;1.13;;;;;;;14.55;63.90;98907.72;4185999;28;20048;-72
2022/05/26 06:12:30;;;;;;;1.92;1.00;;;;;;;14.62;63.28;98904.97;4195836;27;20044;-72
2022/05/26 06:14:31;;;;;;;4.22;1.10;;;;;;;14.59;64.47;98903.78;4200792;27;20468;-72
2022/05/26 06:16:32;;;;;;;1.27;1.10;;;;;;;14.65;64.18;98906.19;4190198;28;20036;-71
2022/05/26 06:18:32;;;;;;;2.63;1.10;;;;;;;14.70;64.87;98903.78;4185626;28;20328;-71
2022/05/26 06:20:33;;;;;;;2.28;1.40;;;;;;;14.72;64.17;98900.59;4190214;28;20391;-72
2022/05/26 06:22:37;;;;;;;7.03;1.10;;;;;;;14.77;64.85;98894.66;4194417;27;20043;-72
2022/05/26 06:24:38;;;;;;;3.50;1.10;;;;;;;14.82;64.29;98902.63;4182262;28;20036;-71
2022/05/26 06:26:38;;;;;;;1.73;1.08;;;;;;;14.83;65.39;98909.78;4186056;28;20374;-71
2022/05/26 06:31:14;;;;;;;2.85;0.90;;;;;;;14.92;64.06;98901.84;4182316;28;20079;-71
2022/05/26 06:37:54;;;;;;;1.95;1.10;;;;;;;14.93;64.38;98908.19;4196779;28;20059;-71
2022/05/26 06:39:55;;;;;;;2.72;1.08;;;;;;;15.01;64.03;98909.78;4200198;27;20040;-71
2022/05/26 06:42:08;;;;;;;1.30;1.00;;;;;;;15.01;64.19;98913.38;4186620;28;20052;-71
2022/05/26 06:44:08;;;;;;;1.73;1.00;;;;;;;15.03;64.78;98916.56;4184422;28;20094;-72
2022/05/26 06:46:08;;;;;;;1.85;1.00;;;;;;;15.08;64.48;98916.16;4185126;28;20520;-72
2022/05/26 06:48:09;;;;;;;2.35;1.00;;;;;;;15.20;65.66;98916.97;4185097;28;20038;-72
2022/05/26 06:50:10;;;;;;;1.63;1.00;;;;;;;15.21;63.66;98912.97;4186077;28;20044;-72
2022/05/26 06:52:13;;;;;;;1.35;0.85;;;;;;;15.25;64.33;98919.34;4116184;27;20047;-72
2022/05/26 06:54:13;;;;;;;2.17;0.90;;;;;;;15.31;64.72;98923.34;4207557;27;20029;-72
2022/05/26 06:56:13;;;;;;;1.63;1.00;;;;;;;15.35;64.86;98915.75;4188730;28;20039;-72
2022/05/26 06:58:14;;;;;;;1.90;1.08;;;;;;;15.36;63.54;98909.00;4196944;27;20426;-72
2022/05/26 07:00:15;;;;;;;1.65;0.90;;;;;;;15.42;64.34;98918.56;4191394;28;20028;-72
2022/05/26 07:02:15;;;;;;;1.63;1.00;;;;;;;15.40;64.07;98916.16;4187046;28;20240;-72
2022/05/26 07:04:15;;;;;;;2.30;0.90;;;;;;;15.41;64.54;98928.13;4189026;28;20418;-72
2022/05/26 07:06:19;;;;;;;1.88;1.10;;;;;;;15.36;63.91;98934.09;4188580;28;20028;-71
2022/05/26 07:08:19;;;;;;;1.25;0.90;;;;;;;15.36;62.99;98931.28;4188192;28;20045;-71
2022/05/26 07:10:20;;;;;;;2.90;1.15;;;;;;;15.29;63.71;98931.28;4189574;28;20354;-71
2022/05/26 07:12:21;;;;;;;2.53;1.00;;;;;;;15.23;63.97;98922.56;4194421;27;20048;-71
2022/05/26 07:14:22;;;;;;;1.20;0.80;;;;;;;15.25;63.46;98930.50;4188395;28;20523;-71
2022/05/26 07:16:22;;;;;;;2.78;1.00;;;;;;;15.30;64.05;98938.44;4188668;28;20131;-71
2022/05/26 07:18:22;;;;;;;2.97;0.95;;;;;;;15.40;64.65;98938.47;4188164;28;20043;-71
2022/05/26 07:20:22;;;;;;;2.45;1.10;;;;;;;15.49;63.98;98940.06;4188480;28;20041;-71
2022/05/26 07:22:23;;;;;;;3.67;0.93;;;;;;;15.52;63.66;98942.84;4188615;28;20524;-71
2022/05/26 07:24:26;;;;;;;2.50;1.42;;;;;;;15.55;63.38;98942.03;4188451;28;20028;-71
2022/05/26 07:26:28;;;;;;;2.15;1.10;;;;;;;15.50;63.48;98938.88;4188886;28;20047;-71
2022/05/26 07:28:28;;;;;;;2.38;0.93;;;;;;;15.54;63.11;98943.22;4187959;28;20041;-71
2022/05/26 07:30:29;;;;;;;2.13;0.98;;;;;;;15.60;64.41;98943.63;4197447;27;20051;-71
2022/05/26 07:32:29;;;;;;;2.40;1.00;;;;;;;15.65;62.60;98943.25;4203277;27;20040;-71
2022/05/26 07:34:29;;;;;;;3.33;1.40;;;;;;;15.72;63.17;98946.00;4190691;28;20086;-71
2022/05/26 07:41:18;;;;;;;4.05;0.90;;;;;;;15.82;61.85;98948.00;4187965;28;20051;-71
2022/05/26 07:43:18;;;;;;;3.28;1.02;;;;;;;15.95;62.52;98951.94;4188495;28;20439;-71
2022/05/26 07:45:19;;;;;;;0.85;0.85;;;;;;;16.11;61.74;98954.31;4188369;28;20488;-71
2022/05/26 07:47:22;;;;;;;0.93;0.90;;;;;;;16.31;61.12;98953.84;4189550;28;20144;-71
2022/05/26 07:49:23;;;;;;;2.08;1.52;;;;;;;16.44;60.71;98955.75;4187586;28;20285;-71
2022/05/26 07:51:24;;;;;;;3.53;1.10;;;;;;;16.51;60.38;98949.34;4188391;28;20062;-71
2022/05/26 07:53:25;;;;;;;2.17;1.10;;;;;;;16.43;59.47;98945.00;4187928;28;20858;-71
2022/05/26 07:55:25;;;;;;;2.10;1.00;;;;;;;16.48;59.98;98941.81;4188024;28;20036;-71
2022/05/26 07:57:28;;;;;;;1.25;1.00;;;;;;;16.42;59.78;98944.22;4188397;28;20032;-71
2022/05/26 07:59:29;;;;;;;1.77;1.13;;;;;;;16.43;60.53;98942.22;4187567;28;20041;-71
2022/05/26 08:01:30;;;;;;;1.80;1.00;;;;;;;16.51;59.54;98943.78;4197693;28;20036;-71
2022/05/26 08:03:31;;;;;;;2.38;1.00;;;;;;;16.71;60.39;98944.09;4203056;27;20129;-71
2022/05/26 08:05:32;;;;;;;0.80;0.80;;;;;;;17.04;60.85;98945.47;4202866;27;20040;-71
2022/05/26 08:07:32;;;;;;;0.80;0.80;;;;;;;17.35;58.39;98952.03;4202533;27;20043;-71
2022/05/26 08:09:32;;;;;;;2.45;0.80;;;;;;;17.35;58.59;98955.63;4192824;27;20127;-71
2022/05/26 08:11:33;;;;;;;1.17;0.77;;;;;;;17.47;59.91;98957.13;4188088;28;20070;-71
2022/05/26 08:13:33;;;;;;;0.88;0.88;;;;;;;17.61;60.03;98956.19;4187508;28;20381;-71
2022/05/26 08:15:34;;;;;;;1.23;0.88;;;;;;;17.61;57.19;98959.78;4187752;28;20491;-71
2022/05/26 08:17:34;;;;;;;2.10;0.98;;;;;;;17.67;59.24;98960.16;4187831;28;20673;-71
2022/05/26 08:19:35;;;;;;;0.80;0.80;;;;;;;17.53;57.33;98968.66;4187135;28;20097;-71
2022/05/26 08:21:35;;;;;;;2.67;1.23;;;;;;;17.34;56.80;98964.44;4194880;28;20047;-71
2022/05/26 08:23:37;;;;;;;1.38;0.82;;;;;;;17.10;58.10;98957.81;4198027;27;20047;-71
2022/05/26 08:25:37;;;;;;;3.28;1.27;;;;;;;17.04;58.02;98960.25;4190451;28;20037;-71
2022/05/26 08:27:37;;;;;;;1.27;1.00;;;;;;;17.13;58.78;98968.19;4194949;27;20040;-71
2022/05/26 08:29:39;;;;;;;1.35;0.98;;;;;;;17.17;59.69;98960.56;4186621;28;20032;-71
2022/05/26 08:31:40;;;;;;;1.15;0.80;;;;;;;17.26;59.25;98972.06;4187726;28;20118;-71
2022/05/26 08:33:40;;;;;;;0.80;0.80;;;;;;;17.36;58.54;98970.41;4187790;28;20049;-71
2022/05/26 08:35:41;;;;;;;2.67;0.98;;;;;;;17.55;58.49;98964.25;4187499;28;20052;-71
2022/05/26 08:37:41;;;;;;;2.85;0.88;;;;;;;17.75;58.66;98972.91;4187286;28;20678;-71
2022/05/26 08:39:41;;;;;;;3.25;0.85;;;;;;;17.89;58.55;98972.78;4186754;28;20111;-71
2022/05/26 08:41:47;;;;;;;2.03;0.90;;;;;;;17.89;58.01;98969.19;4187193;28;20536;-71
2022/05/26 08:44:11;;;;;;;1.60;1.00;;;;;;;17.87;56.97;98982.75;4194503;28;20036;-71
2022/05/26 08:46:15;;;;;;;5.32;0.82;;;;;;;17.83;56.57;98984.81;4185963;28;20045;-71
2022/05/26 08:48:33;;;;;;;0.80;0.70;;;;;;;17.73;56.88;98982.91;4186959;28;20399;-71
2022/05/26 08:50:34;;;;;;;1.35;0.95;;;;;;;17.61;57.23;98976.56;4187283;28;20055;-71
2022/05/26 08:52:48;;;;;;;2.03;0.88;;;;;;;17.49;57.76;98979.91;4186957;28;20044;-71
2022/05/26 08:55:10;;;;;;;2.33;1.00;;;;;;;17.39;57.49;98989.97;4186930;28;20401;-71
2022/05/26 08:57:16;;;;;;;1.20;1.00;;;;;;;17.31;57.12;98988.44;4190402;28;20060;-71
2022/05/26 08:59:22;;;;;;;3.97;0.80;;;;;;;17.28;58.89;98994.81;4185242;28;20047;-71
2022/05/26 09:01:28;;;;;;;3.33;1.00;;;;;;;17.28;58.56;98992.03;4186130;28;20044;-71
2022/05/26 09:03:29;;;;;;;1.08;0.80;;;;;;;17.27;58.94;98996.03;4186457;28;20033;-71
2022/05/26 09:05:37;;;;;;;2.33;1.15;;;;;;;17.25;59.60;98997.66;4187243;28;20437;-71
2022/05/26 09:14:44;;;;;;;1.45;0.90;;;;;;;17.27;58.95;99004.44;4188058;28;20169;-71
2022/05/26 09:16:44;;;;;;;2.90;1.30;;;;;;;17.25;58.97;99004.03;4187200;28;20048;-71
2022/05/26 09:19:04;;;;;;;1.55;1.20;;;;;;;17.44;61.33;99008.28;4185722;28;20500;-71
2022/05/26 09:21:25;;;;;;;2.15;1.23;;;;;;;17.46;58.66;99005.09;4197937;27;20036;-71
2022/05/26 09:23:28;;;;;;;2.67;1.00;;;;;;;17.78;58.25;99008.44;4195629;27;20056;-71
2022/05/26 09:26:01;;;;;;;2.45;1.10;;;;;;;18.15;57.83;99004.09;4186659;28;20396;-71
2022/05/26 09:28:02;;;;;;;1.45;0.93;;;;;;;18.43;58.38;99000.16;4189399;28;20391;-72
2022/05/26 09:30:24;;;;;;;4.85;0.90;;;;;;;18.42;55.46;98999.38;4185976;28;20032;-71
2022/05/26 09:32:30;;;;;;;6.00;1.08;;;;;;;18.29;55.60;99008.72;4185937;28;20399;-71
2022/05/26 09:34:33;;;;;;;2.85;1.00;;;;;;;18.45;57.08;99006.16;4184449;28;20044;-72
2022/05/26 09:36:41;;;;;;;1.60;0.90;;;;;;;18.70;54.77;99019.88;4187011;28;20644;-72
2022/05/26 09:38:43;;;;;;;1.58;0.90;;;;;;;18.76;54.77;99016.19;4186878;28;20056;-72
2022/05/26 09:40:46;;;;;;;2.38;1.00;;;;;;;18.80;54.23;99021.78;4192788;28;20317;-72
2022/05/26 09:42:54;;;;;;;1.63;1.00;;;;;;;18.87;54.58;99021.69;4201464;28;20042;-72
2022/05/26 09:44:59;;;;;;;1.02;0.77;;;;;;;18.96;54.00;99027.56;4185956;28;20480;-71
2022/05/26 09:47:04;;;;;;;1.45;0.90;;;;;;;18.85;54.52;99024.09;4186719;28;20041;-71
2022/05/26 09:49:11;;;;;;;2.08;0.93;;;;;;;18.75;54.37;99033.44;4184786;28;20049;-71
2022/05/26 09:51:40;;;;;;;1.65;1.20;;;;;;;18.65;54.86;99026.75;4185553;28;20449;-72
2022/05/26 09:53:43;;;;;;;1.05;0.80;;;;;;;18.64;55.29;99027.94;4184062;28;20044;-71
2022/05/26 09:55:47;;;;;;;2.67;0.90;;;;;;;18.61;56.38;99025.19;4185340;28;20048;-71
2022/05/26 09:57:48;;;;;;;1.25;1.10;;;;;;;18.45;54.94;99031.34;4193067;27;20687;-71
2022/05/26 09:59:48;;;;;;;1.70;0.98;;;;;;;18.36;55.46;99025.47;4187837;27;20041;-72
2022/05/26 10:01:52;;;;;;;2.33;0.85;;;;;;;18.43;55.49;99034.59;4200208;28;20048;-72
2022/05/26 10:04:34;;;;;;;1.33;0.95;;;;;;;18.59;53.98;99036.00;4201586;28;20043;-72
2022/05/26 10:06:42;;;;;;;2.35;0.88;;;;;;;18.50;53.40;99037.31;4198196;27;20673;-72
2022/05/26 10:09:01;;;;;;;1.95;0.82;;;;;;;18.21;54.96;99039.63;4193071;28;20048;-71
2022/05/26 10:11:09;;;;;;;1.48;0.80;;;;;;;18.15;55.70;99038.50;4186253;28;20208;-71
2022/05/26 10:13:31;;;;;;;2.72;1.00;;;;;;;18.17;56.06;99050.06;4185439;28;20391;-71
2022/05/26 10:15:51;;;;;;;1.08;0.90;;;;;;;18.04;56.00;99049.00;4185550;28;20057;-71
2022/05/26 10:18:07;;;;;;;2.20;1.20;;;;;;;18.06;57.01;99051.41;4186172;28;20261;-71